Time;durP1;ratioP1;P1;durP2;ratioP2;P2;SDS_P1;SDS_P2;PMS_P1;PMS_P2;Temp;Humidity;BMP_temperature;BMP_pressure;BME280_temperature;BME280_humidity;BME280_pressure;Samples;Min_cycle;Max_cycle;Signal;HPM_P1;HPM_P2
2024/04/18 00:00:40;;;;;;;2.50;1.30;;;4.60;82.80;;;;;;5491703;26;20211;-70
2024/04/18 00:03:08;;;;;;;3.00;1.50;;;4.60;83.00;;;;;;5491920;26;20248;-70
2024/04/18 00:05:35;;;;;;;4.10;1.80;;;4.80;83.30;;;;;;5490343;26;20236;-70
2024/04/18 00:08:03;;;;;;;2.83;1.30;;;4.90;83.10;;;;;;5490972;26;20222;-70
2024/04/18 00:10:31;;;;;;;3.20;1.67;;;4.90;82.60;;;;;;5491606;26;20210;-70
2024/04/18 00:13:02;;;;;;;2.92;1.08;;;5.00;82.70;;;;;;5491940;26;20222;-70
2024/04/18 00:15:33;;;;;;;3.85;1.40;;;5.10;81.50;;;;;;5491617;26;20553;-70
2024/04/18 00:18:06;;;;;;;2.80;1.60;;;5.20;80.80;;;;;;5491503;26;20218;-70
2024/04/18 00:20:32;;;;;;;3.05;1.20;;;5.30;79.90;;;;;;5489224;26;20226;-70
2024/04/18 00:23:01;;;;;;;4.53;1.83;;;5.30;79.60;;;;;;5491508;26;20816;-70
2024/04/18 00:25:33;;;;;;;3.50;1.58;;;5.30;80.30;;;;;;5491371;26;20215;-70
2024/04/18 00:28:04;;;;;;;2.25;1.25;;;5.40;80.10;;;;;;5491330;26;20210;-70
2024/04/18 00:30:31;;;;;;;2.40;1.30;;;5.40;79.00;;;;;;5491409;26;20562;-70
2024/04/18 00:33:01;;;;;;;3.28;1.17;;;5.50;79.00;;;;;;5491311;26;20277;-70
2024/04/18 00:35:30;;;;;;;4.85;1.63;;;5.50;78.90;;;;;;5490002;26;20728;-70
2024/04/18 00:37:58;;;;;;;3.35;1.58;;;5.50;78.90;;;;;;5491535;26;20329;-70
2024/04/18 00:40:26;;;;;;;1.92;0.73;;;5.60;78.70;;;;;;5491043;26;20588;-70
2024/04/18 00:42:55;;;;;;;2.78;1.40;;;5.60;78.60;;;;;;5490951;26;20294;-70
2024/04/18 00:45:24;;;;;;;3.35;1.60;;;5.60;78.20;;;;;;5490915;26;20218;-70
2024/04/18 00:47:53;;;;;;;3.10;1.38;;;5.60;78.60;;;;;;5491179;26;20211;-70
2024/04/18 00:50:19;;;;;;;6.50;1.55;;;5.70;78.00;;;;;;5490031;26;20227;-70
2024/04/18 00:52:50;;;;;;;2.60;1.45;;;5.70;77.70;;;;;;5490876;26;20820;-70
2024/04/18 00:55:21;;;;;;;2.35;1.45;;;5.80;78.10;;;;;;5490009;26;20650;-70
2024/04/18 00:57:54;;;;;;;3.38;1.25;;;5.80;77.90;;;;;;5490803;26;20260;-70
2024/04/18 01:00:23;;;;;;;3.13;1.35;;;5.80;77.90;;;;;;5491264;26;20248;-70
2024/04/18 01:02:52;;;;;;;3.75;1.55;;;5.80;77.50;;;;;;5491109;26;20313;-70
2024/04/18 01:05:23;;;;;;;5.05;1.50;;;5.80;77.60;;;;;;5489831;26;20334;-70
2024/04/18 01:07:56;;;;;;;7.90;1.77;;;5.90;78.10;;;;;;5490534;26;20218;-70
2024/04/18 01:10:24;;;;;;;2.40;1.27;;;5.90;77.50;;;;;;5490706;26;20740;-70
2024/04/18 01:12:59;;;;;;;5.75;1.33;;;5.90;76.00;;;;;;5490561;26;20256;-70
2024/04/18 01:15:28;;;;;;;4.45;1.92;;;5.90;76.00;;;;;;5489714;26;20264;-70
2024/04/18 01:17:58;;;;;;;3.03;1.42;;;5.90;76.00;;;;;;5490757;26;20545;-70
2024/04/18 01:20:29;;;;;;;2.78;1.40;;;5.90;76.30;;;;;;5490608;26;20214;-70
2024/04/18 01:22:58;;;;;;;3.53;1.70;;;5.90;76.60;;;;;;5490788;26;20218;-70
2024/04/18 01:25:25;;;;;;;2.55;1.30;;;5.90;77.60;;;;;;5490375;26;20214;-70
2024/04/18 01:27:56;;;;;;;2.50;1.40;;;5.90;77.40;;;;;;5490517;26;20218;-70
2024/04/18 01:30:24;;;;;;;2.90;1.70;;;5.90;76.20;;;;;;5489817;26;20227;-71
2024/04/18 01:32:55;;;;;;;2.83;1.40;;;5.90;75.20;;;;;;5490400;26;20260;-70
2024/04/18 01:35:24;;;;;;;2.80;1.02;;;5.80;74.70;;;;;;5489957;26;20265;-71
2024/04/18 01:37:52;;;;;;;3.58;1.30;;;5.80;75.80;;;;;;5490063;26;20210;-71
2024/04/18 01:40:19;;;;;;;4.70;2.25;;;5.70;76.10;;;;;;5490357;26;20210;-71
2024/04/18 01:42:47;;;;;;;5.93;1.35;;;5.60;75.90;;;;;;5490633;26;20282;-71
2024/04/18 01:45:17;;;;;;;2.50;1.20;;;5.70;76.30;;;;;;5490370;26;20258;-71
2024/04/18 01:47:45;;;;;;;2.33;1.25;;;5.70;76.40;;;;;;5490193;26;20253;-71
2024/04/18 01:50:15;;;;;;;2.50;1.38;;;5.60;76.20;;;;;;5490290;26;20257;-71
2024/04/18 01:52:43;;;;;;;2.55;1.23;;;5.60;76.40;;;;;;5490151;26;20253;-71
2024/04/18 01:55:10;;;;;;;2.80;1.30;;;5.60;76.50;;;;;;5490245;26;20211;-70
2024/04/18 01:57:40;;;;;;;2.65;1.30;;;5.60;76.80;;;;;;5489324;26;20334;-71
2024/04/18 02:00:10;;;;;;;3.00;1.20;;;5.60;76.60;;;;;;5488829;26;20582;-71
2024/04/18 02:02:41;;;;;;;2.78;1.35;;;5.60;76.60;;;;;;5490137;26;20613;-70
2024/04/18 02:05:07;;;;;;;2.58;1.40;;;5.60;76.80;;;;;;5490197;26;20230;-70
2024/04/18 02:07:36;;;;;;;2.50;1.20;;;5.60;77.20;;;;;;5489115;26;20231;-71
2024/04/18 02:10:07;;;;;;;4.53;1.35;;;5.60;77.30;;;;;;5489670;26;20249;-71
2024/04/18 02:12:35;;;;;;;3.28;1.50;;;5.60;76.90;;;;;;5489968;26;20222;-70
2024/04/18 02:15:06;;;;;;;2.30;1.20;;;5.60;77.20;;;;;;5489912;26;20596;-71
2024/04/18 02:17:42;;;;;;;2.67;1.42;;;5.60;76.80;;;;;;5488931;26;20712;-71
2024/04/18 02:20:11;;;;;;;2.35;1.35;;;5.60;77.60;;;;;;5489658;26;20213;-70
2024/04/18 02:22:44;;;;;;;2.60;1.35;;;5.60;76.80;;;;;;5489806;26;20218;-71
2024/04/18 02:25:12;;;;;;;2.30;1.10;;;5.60;76.80;;;;;;5490174;26;20689;-70
2024/04/18 02:27:43;;;;;;;3.75;1.27;;;5.60;77.20;;;;;;5489354;26;20260;-71
2024/04/18 02:30:10;;;;;;;2.92;1.35;;;5.60;77.20;;;;;;5489472;26;20218;-70
2024/04/18 02:32:40;;;;;;;2.55;1.23;;;5.60;77.30;;;;;;5489414;26;20234;-70
2024/04/18 02:35:11;;;;;;;2.10;1.00;;;5.60;77.60;;;;;;5489426;26;20214;-71
2024/04/18 02:37:44;;;;;;;3.40;1.35;;;5.60;77.90;;;;;;5489415;26;20567;-70
2024/04/18 02:40:11;;;;;;;3.08;1.60;;;5.60;77.80;;;;;;5489750;26;20214;-71
2024/04/18 02:42:40;;;;;;;2.75;1.80;;;5.60;78.00;;;;;;5489616;26;20321;-70
2024/04/18 02:45:07;;;;;;;2.63;1.48;;;5.60;78.30;;;;;;5488440;26;20261;-70
2024/04/18 02:47:36;;;;;;;2.80;1.40;;;5.60;77.70;;;;;;5489168;26;20218;-70
2024/04/18 02:50:02;;;;;;;3.38;1.38;;;5.60;78.60;;;;;;5489181;26;20211;-70
2024/04/18 02:52:33;;;;;;;2.80;1.40;;;5.60;78.90;;;;;;5486848;26;20311;-71
2024/04/18 02:54:59;;;;;;;2.60;1.60;;;5.60;78.70;;;;;;5488933;26;20257;-70
2024/04/18 02:57:32;;;;;;;3.05;2.08;;;5.60;78.80;;;;;;5489377;26;20281;-70
2024/04/18 02:59:59;;;;;;;4.13;2.10;;;5.60;78.50;;;;;;5489335;26;20241;-70
2024/04/18 03:02:32;;;;;;;3.38;1.88;;;5.60;78.20;;;;;;5488948;26;20218;-71
2024/04/18 03:04:59;;;;;;;4.15;2.03;;;5.70;78.80;;;;;;5488640;26;20215;-70
2024/04/18 03:07:28;;;;;;;6.47;2.25;;;5.70;79.00;;;;;;5488261;26;20226;-70
2024/04/18 03:09:59;;;;;;;4.85;2.20;;;5.60;79.10;;;;;;5489355;26;20210;-70
2024/04/18 03:12:27;;;;;;;3.78;1.70;;;5.60;78.70;;;;;;5491328;26;20218;-70
2024/04/18 03:14:56;;;;;;;3.63;1.83;;;5.60;78.60;;;;;;5491292;26;20276;-70
2024/04/18 03:17:22;;;;;;;3.42;1.50;;;5.50;79.00;;;;;;5492304;26;20704;-70
2024/04/18 03:19:52;;;;;;;3.63;1.98;;;5.50;79.20;;;;;;5492522;26;20256;-71
2024/04/18 03:22:19;;;;;;;3.53;1.60;;;5.50;79.10;;;;;;5492386;26;20534;-70
2024/04/18 03:24:49;;;;;;;4.25;1.30;;;5.50;79.00;;;;;;5492642;26;20274;-70
2024/04/18 03:27:20;;;;;;;3.55;2.17;;;5.50;78.90;;;;;;5492285;26;20253;-70
2024/04/18 03:29:48;;;;;;;3.70;1.90;;;5.40;79.00;;;;;;5491444;26;20272;-70
2024/04/18 03:32:19;;;;;;;2.90;1.75;;;5.50;79.10;;;;;;5492214;26;20257;-70
2024/04/18 03:34:47;;;;;;;2.97;1.80;;;5.40;79.00;;;;;;5492579;26;20214;-70
2024/04/18 03:37:18;;;;;;;2.65;1.48;;;5.40;79.60;;;;;;5492309;26;20252;-70
2024/04/18 03:39:55;;;;;;;4.05;1.70;;;5.40;79.80;;;;;;5491028;26;20602;-70
2024/04/18 03:42:26;;;;;;;3.45;1.70;;;5.40;80.10;;;;;;5492278;26;20252;-70
2024/04/18 03:44:57;;;;;;;2.70;1.42;;;5.40;79.20;;;;;;5492203;26;20214;-70
2024/04/18 03:47:28;;;;;;;3.60;1.55;;;5.40;79.20;;;;;;5492340;26;20214;-70
2024/04/18 03:49:56;;;;;;;4.82;3.92;;;5.40;79.50;;;;;;5492150;26;20257;-70
2024/04/18 03:52:24;;;;;;;3.85;2.20;;;5.40;80.30;;;;;;5491777;26;20747;-70
2024/04/18 03:54:53;;;;;;;3.35;2.03;;;5.50;79.70;;;;;;5491806;26;20716;-70
2024/04/18 03:57:21;;;;;;;3.78;2.60;;;5.40;78.20;;;;;;5491851;26;20214;-70
2024/04/18 03:59:53;;;;;;;7.30;2.50;;;5.40;78.20;;;;;;5492070;26;20222;-71
2024/04/18 04:02:20;;;;;;;3.72;2.13;;;5.40;79.50;;;;;;5491035;26;20253;-71
2024/04/18 04:04:50;;;;;;;3.80;3.40;;;5.40;79.60;;;;;;5490236;26;20290;-71
2024/04/18 04:07:19;;;;;;;3.50;2.55;;;5.40;78.90;;;;;;5491703;26;20218;-71
2024/04/18 04:09:53;;;;;;;4.93;3.60;;;5.30;78.80;;;;;;5491836;26;20257;-71
2024/04/18 04:12:22;;;;;;;4.05;2.58;;;5.40;78.70;;;;;;5491922;26;20253;-71
2024/04/18 04:14:54;;;;;;;3.13;2.20;;;5.30;77.40;;;;;;5492115;26;20306;-71
2024/04/18 04:17:23;;;;;;;3.30;2.10;;;5.30;77.10;;;;;;5491752;26;20214;-70
2024/04/18 04:19:53;;;;;;;2.53;1.33;;;5.30;76.50;;;;;;5490875;26;20226;-71
2024/04/18 04:22:20;;;;;;;3.97;1.65;;;5.20;76.90;;;;;;5491666;26;20210;-71
2024/04/18 04:24:50;;;;;;;4.70;2.10;;;5.20;77.40;;;;;;5490607;26;20218;-70
2024/04/18 04:27:16;;;;;;;4.25;2.65;;;5.20;77.30;;;;;;5490781;26;20590;-70
2024/04/18 04:29:47;;;;;;;5.93;4.23;;;5.20;77.40;;;;;;5491766;26;20214;-71
2024/04/18 04:32:23;;;;;;;4.72;4.10;;;5.10;77.70;;;;;;5491344;26;20447;-70
2024/04/18 04:34:56;;;;;;;5.20;3.78;;;5.10;78.00;;;;;;5491465;26;20212;-71
2024/04/18 04:37:23;;;;;;;4.25;2.70;;;5.10;77.50;;;;;;5491397;26;20218;-71
2024/04/18 04:39:52;;;;;;;3.30;2.00;;;5.10;77.30;;;;;;5490706;26;20222;-71
2024/04/18 04:42:18;;;;;;;3.72;2.20;;;5.10;77.70;;;;;;5489877;26;20222;-71
2024/04/18 04:44:52;;;;;;;3.72;2.70;;;5.10;77.70;;;;;;5491431;26;20218;-70
2024/04/18 04:47:21;;;;;;;7.32;4.53;;;5.10;77.70;;;;;;5491534;26;20258;-70
2024/04/18 04:49:50;;;;;;;7.40;4.93;;;5.00;77.60;;;;;;5491899;26;20218;-70
2024/04/18 04:52:19;;;;;;;7.30;4.03;;;5.00;78.00;;;;;;5489997;26;20234;-71
2024/04/18 04:54:53;;;;;;;5.50;3.70;;;5.00;77.60;;;;;;5491324;26;20219;-70
2024/04/18 04:57:19;;;;;;;4.25;2.90;;;5.00;77.90;;;;;;5491369;26;20567;-71
2024/04/18 04:59:47;;;;;;;5.93;2.92;;;4.90;78.10;;;;;;5491245;26;20534;-71
2024/04/18 05:02:13;;;;;;;3.45;2.13;;;4.90;78.20;;;;;;5491011;26;20246;-72
2024/04/18 05:04:45;;;;;;;3.60;2.20;;;4.90;78.00;;;;;;5490898;26;20218;-71
2024/04/18 05:07:11;;;;;;;4.20;2.50;;;4.90;78.10;;;;;;5489420;26;20226;-71
2024/04/18 05:09:43;;;;;;;3.90;2.70;;;4.90;78.20;;;;;;5489987;26;20222;-71
2024/04/18 05:12:10;;;;;;;5.18;3.22;;;4.90;78.30;;;;;;5488995;26;20543;-71
2024/04/18 05:14:39;;;;;;;4.07;2.58;;;5.00;77.90;;;;;;5490612;26;20214;-71
2024/04/18 05:17:06;;;;;;;4.13;2.80;;;5.00;78.00;;;;;;5490755;26;20261;-71
2024/04/18 05:19:35;;;;;;;3.55;2.20;;;5.00;78.30;;;;;;5489741;26;20226;-72
2024/04/18 05:22:04;;;;;;;4.20;2.55;;;4.90;78.40;;;;;;5490381;26;20354;-71
2024/04/18 05:24:33;;;;;;;3.17;1.88;;;5.00;78.70;;;;;;5490488;26;20249;-71
2024/04/18 05:27:01;;;;;;;3.10;2.30;;;5.00;78.60;;;;;;5489770;26;20270;-71
2024/04/18 05:32:26;;;;;;;3.35;2.30;;;5.00;78.40;;;;;;5449968;26;20227;-71
2024/04/18 05:34:55;;;;;;;3.30;2.40;;;5.00;78.30;;;;;;5481362;26;20218;-71
2024/04/18 05:37:27;;;;;;;3.40;2.35;;;5.00;78.30;;;;;;5490319;26;20219;-71
2024/04/18 05:39:56;;;;;;;4.38;3.17;;;5.00;77.80;;;;;;5490654;26;20261;-71
2024/04/18 05:42:25;;;;;;;4.05;2.50;;;5.00;77.90;;;;;;5490368;26;20245;-71
2024/04/18 05:44:53;;;;;;;3.53;2.60;;;5.00;78.90;;;;;;5490199;26;20567;-71
2024/04/18 05:47:26;;;;;;;5.10;2.70;;;5.10;78.40;;;;;;5488270;26;20595;-71
2024/04/18 05:49:56;;;;;;;4.00;2.75;;;5.10;78.70;;;;;;5487740;26;20218;-72
2024/04/18 05:52:25;;;;;;;3.88;2.42;;;5.10;78.60;;;;;;5488602;26;20389;-72
2024/04/18 05:54:53;;;;;;;3.80;2.55;;;5.10;78.00;;;;;;5486527;26;20246;-71
2024/04/18 05:57:22;;;;;;;4.55;2.80;;;5.10;78.30;;;;;;5488546;26;20214;-71
2024/04/18 05:59:50;;;;;;;4.03;3.38;;;5.10;78.20;;;;;;5488512;26;20549;-71
2024/04/18 06:02:19;;;;;;;6.32;4.03;;;5.10;78.10;;;;;;5487180;26;20226;-71
2024/04/18 06:04:48;;;;;;;3.78;2.50;;;5.10;78.50;;;;;;5488241;26;20766;-71
2024/04/18 06:07:16;;;;;;;2.88;2.00;;;5.10;78.70;;;;;;5487882;26;20227;-71
2024/04/18 06:09:48;;;;;;;3.35;2.00;;;5.10;78.50;;;;;;5486042;26;20226;-71
2024/04/18 06:12:17;;;;;;;3.60;2.40;;;5.20;78.30;;;;;;5485250;26;20229;-71
2024/04/18 06:14:46;;;;;;;3.60;2.30;;;5.20;78.10;;;;;;5484846;26;20584;-71
2024/04/18 06:17:14;;;;;;;4.03;2.58;;;5.20;78.30;;;;;;5481583;26;21057;-71
2024/04/18 06:19:52;;;;;;;3.65;2.35;;;5.20;78.10;;;;;;5484385;26;20230;-72
2024/04/18 06:22:20;;;;;;;3.38;2.25;;;5.30;78.30;;;;;;5475858;26;20265;-71
2024/04/18 06:24:53;;;;;;;3.60;2.45;;;5.30;78.10;;;;;;5488135;26;20215;-71
2024/04/18 06:27:22;;;;;;;5.60;3.08;;;5.30;78.10;;;;;;5488261;26;20337;-71
2024/04/18 06:29:51;;;;;;;4.32;2.95;;;5.30;78.10;;;;;;5487697;26;20716;-71
2024/04/18 06:32:20;;;;;;;4.20;3.25;;;5.40;78.20;;;;;;5487095;26;20226;-72
2024/04/18 06:34:48;;;;;;;5.05;3.40;;;5.40;78.10;;;;;;5488163;26;21133;-72
2024/04/18 06:37:17;;;;;;;4.63;3.15;;;5.50;78.00;;;;;;5488548;26;20214;-71
2024/04/18 06:39:46;;;;;;;3.80;2.88;;;5.50;77.70;;;;;;5487992;26;20274;-71
2024/04/18 06:42:17;;;;;;;4.15;3.05;;;5.50;77.60;;;;;;5487304;26;20277;-72
2024/04/18 06:44:48;;;;;;;3.60;2.60;;;5.50;77.70;;;;;;5486328;26;20230;-72
2024/04/18 06:47:16;;;;;;;4.00;3.30;;;5.50;77.90;;;;;;5489363;26;20269;-71
2024/04/18 06:49:45;;;;;;;6.70;4.00;;;5.60;78.00;;;;;;5491495;26;21926;-72
2024/04/18 06:52:13;;;;;;;4.20;3.25;;;5.60;79.10;;;;;;5455544;26;20219;-71
2024/04/18 06:54:46;;;;;;;5.63;3.58;;;5.70;78.30;;;;;;5473335;26;20226;-72
2024/04/18 06:57:17;;;;;;;3.88;3.22;;;5.70;77.80;;;;;;5492492;26;20534;-71
2024/04/18 06:59:46;;;;;;;8.95;5.70;;;5.70;77.60;;;;;;5492550;26;20214;-71
2024/04/18 07:02:15;;;;;;;9.90;6.38;;;5.80;78.10;;;;;;5492609;26;20210;-71
2024/04/18 07:04:45;;;;;;;10.75;7.68;;;5.80;78.00;;;;;;5492383;26;20211;-71
2024/04/18 07:07:13;;;;;;;7.38;5.63;;;5.90;79.00;;;;;;5492633;26;20343;-71
2024/04/18 07:09:42;;;;;;;7.13;6.22;;;6.00;78.10;;;;;;5492505;26;20735;-71
2024/04/18 07:12:08;;;;;;;7.50;5.88;;;6.10;80.00;;;;;;5493225;26;20215;-72
2024/04/18 07:14:39;;;;;;;7.60;5.97;;;6.30;80.90;;;;;;5492690;26;20269;-72
2024/04/18 07:17:08;;;;;;;4.43;3.65;;;6.30;81.30;;;;;;5492418;26;20731;-71
2024/04/18 07:19:36;;;;;;;5.55;3.85;;;6.50;81.50;;;;;;5492257;26;20249;-72
2024/04/18 07:22:05;;;;;;;6.82;4.30;;;6.60;81.70;;;;;;5492585;26;20268;-72
2024/04/18 07:24:31;;;;;;;10.65;5.75;;;6.70;81.30;;;;;;5492216;26;20245;-71
2024/04/18 07:27:00;;;;;;;10.17;6.10;;;7.00;80.80;;;;;;5492101;26;20668;-72
2024/04/18 07:29:28;;;;;;;6.22;4.95;;;7.10;80.70;;;;;;5467442;26;20520;-72
2024/04/18 07:32:00;;;;;;;4.78;3.03;;;7.30;78.60;;;;;;5455097;26;20258;-71
2024/04/18 07:34:29;;;;;;;3.80;2.85;;;7.40;76.90;;;;;;5455715;26;20330;-72
2024/04/18 07:36:57;;;;;;;7.03;4.55;;;7.50;77.10;;;;;;5455174;26;20764;-71
2024/04/18 07:39:26;;;;;;;4.35;3.53;;;7.60;72.80;;;;;;5455450;26;20259;-72
2024/04/18 07:41:54;;;;;;;7.07;3.95;;;7.50;70.40;;;;;;5474376;26;20234;-72
2024/04/18 07:44:23;;;;;;;7.70;5.15;;;7.50;71.80;;;;;;5491159;26;20227;-71
2024/04/18 07:46:51;;;;;;;8.35;5.68;;;7.50;73.40;;;;;;5491831;26;20576;-71
2024/04/18 07:49:23;;;;;;;12.55;5.55;;;7.60;74.80;;;;;;5491703;26;20435;-72
2024/04/18 07:51:51;;;;;;;5.18;3.95;;;7.70;76.20;;;;;;5491552;26;20225;-71
2024/04/18 07:54:20;;;;;;;6.30;4.38;;;7.80;76.40;;;;;;5491219;26;20720;-71
2024/04/18 07:56:49;;;;;;;4.05;2.95;;;7.90;73.90;;;;;;5491206;26;20293;-72
2024/04/18 07:59:17;;;;;;;4.80;3.33;;;8.00;72.80;;;;;;5490050;26;20215;-72
2024/04/18 08:01:46;;;;;;;4.25;2.97;;;8.10;73.90;;;;;;5491443;26;20218;-71
2024/04/18 08:04:15;;;;;;;4.22;2.85;;;8.30;74.00;;;;;;5491315;26;20245;-71
2024/04/18 08:06:46;;;;;;;6.05;2.35;;;8.60;74.30;;;;;;5491285;26;20226;-71
2024/04/18 08:09:14;;;;;;;3.50;2.40;;;8.90;76.40;;;;;;5491510;26;20214;-72
2024/04/18 08:11:43;;;;;;;4.35;2.28;;;9.20;72.80;;;;;;5491690;26;20214;-71
2024/04/18 08:14:12;;;;;;;3.05;2.08;;;9.40;70.30;;;;;;5491593;26;20210;-71
2024/04/18 08:16:40;;;;;;;4.65;2.55;;;9.60;69.90;;;;;;5491671;26;20295;-72
2024/04/18 08:19:09;;;;;;;3.58;2.45;;;9.90;66.80;;;;;;5491366;26;20214;-71
2024/04/18 08:21:38;;;;;;;3.83;2.38;;;10.20;65.40;;;;;;5491226;26;20214;-71
2024/04/18 08:24:18;;;;;;;3.95;2.80;;;10.50;66.60;;;;;;5491394;26;20214;-72
2024/04/18 08:26:47;;;;;;;3.80;2.50;;;10.90;62.00;;;;;;5491242;26;20218;-72
2024/04/18 08:29:22;;;;;;;3.67;2.50;;;11.30;62.00;;;;;;5491675;26;20215;-72
2024/04/18 08:31:51;;;;;;;3.38;2.15;;;11.40;60.50;;;;;;5491107;26;20214;-72
2024/04/18 08:34:19;;;;;;;4.80;2.20;;;11.50;57.90;;;;;;5490959;26;20273;-72
2024/04/18 08:36:48;;;;;;;3.00;2.05;;;11.50;55.50;;;;;;5490991;26;20214;-72
2024/04/18 08:39:19;;;;;;;4.00;2.55;;;11.50;58.90;;;;;;5490763;26;20308;-72
2024/04/18 08:41:48;;;;;;;5.35;3.28;;;11.60;58.10;;;;;;5490997;26;20781;-71
2024/04/18 08:44:17;;;;;;;3.90;2.95;;;11.80;57.80;;;;;;5490747;26;20767;-72
2024/04/18 08:46:47;;;;;;;5.25;2.65;;;12.10;58.40;;;;;;5491030;26;20214;-72
2024/04/18 08:49:16;;;;;;;3.95;2.53;;;12.30;55.40;;;;;;5490708;26;20609;-71
2024/04/18 08:51:46;;;;;;;3.93;2.60;;;12.60;54.00;;;;;;5490689;26;20218;-72
2024/04/18 08:54:22;;;;;;;3.67;2.93;;;12.90;53.60;;;;;;5490747;26;20447;-71
2024/04/18 08:56:53;;;;;;;5.17;2.23;;;13.00;51.00;;;;;;5490713;26;20451;-71
2024/04/18 08:59:23;;;;;;;6.30;3.00;;;13.30;54.90;;;;;;5490524;26;20654;-71
2024/04/18 09:01:51;;;;;;;5.27;3.50;;;13.60;52.70;;;;;;5490738;26;20455;-71
2024/04/18 09:04:18;;;;;;;6.23;4.47;;;13.90;51.10;;;;;;5490504;26;20588;-71
2024/04/18 09:06:46;;;;;;;5.73;3.00;;;14.00;46.70;;;;;;5490087;26;20466;-71
2024/04/18 09:09:18;;;;;;;4.03;2.30;;;14.00;48.30;;;;;;5489821;26;20459;-71
2024/04/18 09:11:59;;;;;;;3.40;1.80;;;14.30;49.40;;;;;;5490340;26;20549;-71
2024/04/18 09:14:28;;;;;;;2.57;1.53;;;14.50;47.50;;;;;;5490343;26;20526;-71
2024/04/18 09:17:02;;;;;;;3.60;2.00;;;14.80;46.50;;;;;;5491244;26;20468;-72
2024/04/18 09:19:31;;;;;;;2.83;1.73;;;15.10;48.30;;;;;;5490371;26;21028;-72
2024/04/18 09:22:02;;;;;;;3.60;2.10;;;15.30;45.20;;;;;;5490534;26;20495;-72
2024/04/18 09:24:32;;;;;;;4.20;1.60;;;15.20;46.10;;;;;;5490399;26;20577;-71
2024/04/18 09:27:04;;;;;;;3.27;1.50;;;14.90;43.70;;;;;;5489792;26;21084;-71
2024/04/18 09:29:33;;;;;;;2.77;1.63;;;14.60;43.80;;;;;;5490326;26;20824;-71
2024/04/18 09:32:05;;;;;;;3.33;1.90;;;14.30;44.60;;;;;;5490431;26;20500;-71
2024/04/18 09:34:34;;;;;;;2.80;1.43;;;14.00;42.80;;;;;;5490462;26;20457;-71
2024/04/18 09:37:06;;;;;;;2.63;1.70;;;13.80;44.20;;;;;;5490476;26;20447;-71
2024/04/18 09:39:36;;;;;;;3.13;1.30;;;13.60;46.10;;;;;;5490193;26;20479;-72
2024/04/18 09:42:17;;;;;;;3.27;2.10;;;13.70;48.30;;;;;;5490919;26;20449;-71
2024/04/18 09:44:52;;;;;;;3.27;1.70;;;13.70;46.40;;;;;;5490336;26;20454;-71
2024/04/18 09:47:21;;;;;;;3.50;1.97;;;13.50;46.10;;;;;;5490328;26;20454;-71
2024/04/18 09:49:51;;;;;;;2.53;1.43;;;13.30;47.30;;;;;;5490239;26;20451;-71
2024/04/18 09:52:23;;;;;;;3.73;1.77;;;13.10;49.10;;;;;;5490225;26;20789;-71
2024/04/18 09:54:52;;;;;;;3.47;1.60;;;12.80;49.80;;;;;;5490166;26;20494;-71
2024/04/18 09:57:25;;;;;;;4.30;1.60;;;12.60;51.60;;;;;;5490049;26;20495;-71
2024/04/18 09:59:55;;;;;;;3.20;1.80;;;12.50;51.40;;;;;;5490052;26;20508;-71
2024/04/18 10:02:24;;;;;;;3.70;1.53;;;12.40;51.30;;;;;;5490014;26;20491;-71
2024/04/18 10:04:51;;;;;;;2.80;1.70;;;12.30;51.60;;;;;;5490203;26;20989;-71
2024/04/18 10:07:20;;;;;;;3.23;1.67;;;12.10;51.70;;;;;;5489881;26;20485;-71
2024/04/18 10:09:50;;;;;;;3.20;1.60;;;11.90;51.90;;;;;;5489821;26;20447;-71
2024/04/18 10:12:23;;;;;;;2.60;1.20;;;11.60;52.00;;;;;;5489777;26;20264;-71
2024/04/18 10:14:53;;;;;;;3.50;1.80;;;11.30;51.70;;;;;;5489613;26;20315;-71
2024/04/18 10:17:26;;;;;;;3.13;1.50;;;11.10;51.20;;;;;;5489632;26;20258;-71
2024/04/18 10:19:55;;;;;;;2.85;1.40;;;10.90;51.20;;;;;;5489453;26;20214;-71
2024/04/18 10:22:28;;;;;;;3.33;1.67;;;10.50;51.40;;;;;;5488566;26;20227;-71
2024/04/18 10:25:02;;;;;;;3.45;1.70;;;10.30;51.80;;;;;;5489503;26;20252;-71
2024/04/18 10:27:40;;;;;;;2.58;1.55;;;10.00;52.20;;;;;;5487919;26;20209;-71
2024/04/18 10:30:15;;;;;;;3.92;2.53;;;9.70;53.10;;;;;;5489225;26;20671;-71
2024/04/18 10:32:45;;;;;;;9.25;3.22;;;9.40;52.90;;;;;;5489301;26;20213;-71
2024/04/18 10:35:16;;;;;;;8.70;3.05;;;9.10;53.80;;;;;;5489737;26;20245;-71
2024/04/18 10:37:51;;;;;;;9.25;3.28;;;8.90;54.50;;;;;;5489116;26;20755;-71
2024/04/18 10:40:20;;;;;;;9.98;4.28;;;8.70;55.30;;;;;;5488982;26;20277;-71
2024/04/18 10:42:51;;;;;;;7.05;3.05;;;8.50;55.90;;;;;;5488879;26;20257;-71
2024/04/18 10:45:20;;;;;;;5.18;1.95;;;8.30;57.20;;;;;;5485248;26;20330;-71
2024/04/18 10:47:55;;;;;;;3.80;2.10;;;8.20;57.80;;;;;;5488429;26;20214;-70
2024/04/18 10:50:23;;;;;;;3.13;2.15;;;8.00;58.20;;;;;;5475593;26;20222;-70
2024/04/18 10:52:52;;;;;;;3.35;1.60;;;7.90;59.00;;;;;;5481866;26;20222;-71
2024/04/18 10:55:24;;;;;;;2.65;1.65;;;7.90;60.90;;;;;;5488453;26;20273;-71
2024/04/18 10:57:55;;;;;;;2.50;1.30;;;7.90;61.00;;;;;;5488664;26;20294;-70
2024/04/18 11:00:24;;;;;;;3.53;1.70;;;7.90;61.70;;;;;;5487898;26;20284;-71
2024/04/18 11:02:57;;;;;;;2.70;1.67;;;7.90;61.80;;;;;;5488611;26;20306;-70
2024/04/18 11:05:26;;;;;;;3.05;1.85;;;8.00;63.00;;;;;;5488395;26;20230;-71
2024/04/18 11:07:54;;;;;;;2.83;1.63;;;8.10;64.20;;;;;;5487867;26;20265;-71
2024/04/18 11:10:27;;;;;;;3.72;1.80;;;8.30;61.50;;;;;;5488003;26;20750;-71
2024/04/18 11:13:00;;;;;;;3.30;1.80;;;8.50;66.40;;;;;;5488484;26;20218;-71
2024/04/18 11:15:30;;;;;;;3.55;2.15;;;9.00;69.30;;;;;;5488564;26;20249;-71
2024/04/18 11:17:59;;;;;;;3.53;2.25;;;9.70;72.70;;;;;;5488904;26;20218;-71
2024/04/18 11:20:27;;;;;;;4.22;2.08;;;10.40;70.00;;;;;;5487941;26;20735;-71
2024/04/18 11:22:58;;;;;;;4.75;2.25;;;11.10;68.20;;;;;;5488487;26;20210;-71
2024/04/18 11:25:27;;;;;;;3.00;1.80;;;11.70;62.80;;;;;;5486194;26;20717;-71
2024/04/18 11:27:58;;;;;;;2.53;1.57;;;12.30;58.90;;;;;;5483644;26;20503;-71
2024/04/18 11:30:28;;;;;;;3.37;2.40;;;12.60;58.10;;;;;;5486360;26;20467;-71
2024/04/18 11:32:57;;;;;;;2.60;1.50;;;13.00;58.50;;;;;;5488955;26;20503;-71
2024/04/18 11:35:26;;;;;;;2.70;1.60;;;13.40;59.00;;;;;;5490177;26;20463;-71
2024/04/18 11:37:56;;;;;;;2.80;1.33;;;13.60;56.30;;;;;;5491339;26;20858;-71
2024/04/18 11:40:25;;;;;;;3.00;1.37;;;13.60;52.30;;;;;;5490713;26;20463;-72
2024/04/18 11:42:54;;;;;;;3.17;1.47;;;13.20;47.90;;;;;;5490515;26;20463;-72
2024/04/18 11:45:25;;;;;;;2.60;1.40;;;12.80;46.40;;;;;;5491456;26;20444;-71
2024/04/18 11:48:00;;;;;;;2.30;1.17;;;12.30;46.20;;;;;;5490975;26;20454;-72
2024/04/18 11:50:28;;;;;;;2.17;0.93;;;11.80;46.60;;;;;;5455414;26;20949;-71
2024/04/18 11:52:58;;;;;;;2.33;1.17;;;11.30;47.30;;;;;;5455688;26;20456;-71
2024/04/18 11:55:26;;;;;;;2.60;1.33;;;10.80;48.30;;;;;;5455535;26;20658;-71
2024/04/18 11:57:55;;;;;;;2.30;1.17;;;10.40;49.50;;;;;;5455377;26;20216;-71
2024/04/18 12:00:24;;;;;;;2.33;1.20;;;10.00;50.90;;;;;;5455326;26;20219;-71
2024/04/18 12:02:52;;;;;;;2.42;1.25;;;9.70;53.00;;;;;;5455548;26;20696;-72
2024/04/18 12:05:21;;;;;;;3.10;1.83;;;9.40;54.00;;;;;;5454983;26;20266;-71
2024/04/18 12:07:50;;;;;;;2.80;1.90;;;9.20;55.70;;;;;;5455634;26;20258;-71
2024/04/18 12:10:19;;;;;;;4.43;1.50;;;9.00;56.80;;;;;;5454876;26;20215;-71
2024/04/18 12:12:48;;;;;;;2.65;1.02;;;8.80;57.80;;;;;;5454291;26;20215;-71
2024/04/18 12:15:16;;;;;;;2.53;1.35;;;8.70;58.50;;;;;;5455161;26;20212;-72
2024/04/18 12:17:47;;;;;;;2.60;1.00;;;8.80;60.20;;;;;;5454906;26;20591;-71
2024/04/18 12:20:16;;;;;;;2.17;1.10;;;8.80;61.60;;;;;;5454320;26;20258;-71
2024/04/18 12:22:45;;;;;;;2.40;1.00;;;9.00;63.40;;;;;;5454698;26;20215;-72
2024/04/18 12:25:15;;;;;;;1.90;0.80;;;9.20;63.60;;;;;;5455266;26;20258;-72
2024/04/18 12:27:43;;;;;;;2.10;0.90;;;9.40;62.20;;;;;;5454814;26;20287;-72
2024/04/18 12:30:10;;;;;;;2.10;1.00;;;9.60;62.80;;;;;;5454436;26;20219;-72
2024/04/18 12:32:39;;;;;;;2.40;1.27;;;9.90;62.10;;;;;;5454646;26;20743;-72
2024/04/18 12:35:10;;;;;;;2.20;1.10;;;10.20;59.60;;;;;;5454587;26;20215;-71
2024/04/18 12:37:38;;;;;;;2.28;1.33;;;10.50;63.20;;;;;;5454627;26;20211;-71
2024/04/18 12:40:08;;;;;;;2.20;1.10;;;10.80;61.00;;;;;;5454652;26;20542;-71
2024/04/18 12:42:36;;;;;;;2.65;1.30;;;11.20;64.90;;;;;;5455359;26;20215;-71
2024/04/18 12:45:05;;;;;;;2.20;1.10;;;11.60;61.10;;;;;;5453765;26;20254;-71
2024/04/18 12:47:34;;;;;;;2.55;1.38;;;11.80;58.60;;;;;;5454868;26;20449;-71
2024/04/18 12:50:04;;;;;;;2.70;1.63;;;12.00;56.60;;;;;;5454717;26;20551;-71
2024/04/18 12:52:35;;;;;;;2.57;1.60;;;12.10;58.40;;;;;;5455362;26;21045;-71
2024/04/18 12:55:03;;;;;;;3.60;2.60;;;12.30;58.50;;;;;;5454812;26;20456;-71
2024/04/18 12:57:32;;;;;;;3.97;2.63;;;12.40;56.60;;;;;;5454544;26;20452;-71
2024/04/18 12:59:58;;;;;;;5.60;2.70;;;12.40;54.50;;;;;;5454484;26;20458;-71
2024/04/18 13:02:27;;;;;;;4.40;2.77;;;12.40;53.50;;;;;;5454487;26;21025;-72
2024/04/18 13:04:55;;;;;;;6.10;3.73;;;12.30;53.50;;;;;;5454139;26;20505;-71
2024/04/18 13:07:26;;;;;;;6.30;3.37;;;12.20;53.30;;;;;;5454372;26;20594;-71
2024/04/18 13:09:57;;;;;;;3.80;2.83;;;12.10;53.40;;;;;;5454183;26;20505;-71